Time;durP1;ratioP1;P1;durP2;ratioP2;P2;SDS_P1;SDS_P2;PMS_P1;PMS_P2;Temp;Humidity;BMP_temperature;BMP_pressure;BME280_temperature;BME280_humidity;BME280_pressure;Samples;Min_cycle;Max_cycle;Signal;HPM_P1;HPM_P2
2022/04/26 03:36:08;;;;;;;28.25;20.45;;;;;;;;;;5010898;28;20034;-74
2022/04/26 03:38:34;;;;;;;20.42;18.23;;;;;;;;;;5010962;28;20042;-71
2022/04/26 03:41:00;;;;;;;23.25;19.50;;;;;;;;;;5010875;28;20053;-74
2022/04/26 03:43:26;;;;;;;23.42;18.88;;;;;;;;;;5011038;28;20529;-73
2022/04/26 03:45:53;;;;;;;20.55;18.38;;;;;;;;;;5010809;28;20045;-71
2022/04/26 03:48:18;;;;;;;24.52;18.70;;;;;;;;;;5010645;28;20046;-73
2022/04/26 03:50:44;;;;;;;22.42;19.63;;;;;;;;;;5008503;28;20585;-73
2022/04/26 03:53:10;;;;;;;21.65;19.40;;;;;;;;;;5010589;28;20494;-72
2022/04/26 03:55:36;;;;;;;19.50;17.55;;;;;;;;;;5004501;28;20378;-74
2022/04/26 03:58:02;;;;;;;19.77;17.58;;;;;;;;;;5009959;28;20049;-74
2022/04/26 04:00:28;;;;;;;20.20;18.02;;;;;;;;;;5009444;28;20065;-73
2022/04/26 04:02:54;;;;;;;19.83;17.73;;;;;;;;;;5009236;28;20050;-74
2022/04/26 04:05:23;;;;;;;22.75;17.35;;;;;;;;;;5011601;28;20049;-73
2022/04/26 04:07:49;;;;;;;20.38;18.15;;;;;;;;;;5012339;28;20042;-72
2022/04/26 04:10:15;;;;;;;19.90;17.80;;;;;;;;;;5015472;28;20053;-74
2022/04/26 04:12:41;;;;;;;17.55;15.75;;;;;;;;;;5003263;28;20076;-73
2022/04/26 04:15:07;;;;;;;21.08;17.65;;;;;;;;;;4998599;28;20106;-73
2022/04/26 04:17:33;;;;;;;19.75;17.75;;;;;;;;;;4991429;28;20161;-73
2022/04/26 04:19:59;;;;;;;20.55;18.20;;;;;;;;;;5006309;28;20050;-73
2022/04/26 04:22:24;;;;;;;19.55;17.42;;;;;;;;;;5004670;28;20057;-74
2022/04/26 04:24:51;;;;;;;22.88;17.83;;;;;;;;;;5004379;28;20144;-74
2022/04/26 04:27:16;;;;;;;24.60;17.33;;;;;;;;;;5009231;28;20447;-74
2022/04/26 04:29:43;;;;;;;23.10;18.75;;;;;;;;;;5007592;28;20215;-73
2022/04/26 04:32:10;;;;;;;18.58;16.63;;;;;;;;;;4990930;28;20467;-75
2022/04/26 04:34:35;;;;;;;22.98;16.65;;;;;;;;;;5008983;28;20077;-74
2022/04/26 04:37:01;;;;;;;24.67;17.92;;;;;;;;;;5009409;28;20089;-73
2022/04/26 04:39:27;;;;;;;22.58;17.25;;;;;;;;;;5010731;28;20189;-74
2022/04/26 04:41:53;;;;;;;22.67;17.20;;;;;;;;;;5010331;28;20050;-73
2022/04/26 04:44:19;;;;;;;20.63;16.60;;;;;;;;;;4993084;28;20037;-73
2022/04/26 04:46:45;;;;;;;17.67;15.80;;;;;;;;;;4992867;28;20465;-74
2022/04/26 04:49:11;;;;;;;17.95;16.02;;;;;;;;;;5010427;28;20581;-73
2022/04/26 04:51:37;;;;;;;20.35;16.23;;;;;;;;;;5010490;28;20069;-74
2022/04/26 04:54:04;;;;;;;21.50;15.63;;;;;;;;;;5010203;28;20136;-72
2022/04/26 04:56:29;;;;;;;21.00;16.77;;;;;;;;;;4992933;28;20117;-74
2022/04/26 04:58:55;;;;;;;18.58;15.88;;;;;;;;;;5010080;28;20572;-73
2022/04/26 05:01:21;;;;;;;16.70;15.10;;;;;;;;;;4992360;28;20045;-74
2022/04/26 05:03:47;;;;;;;17.05;15.25;;;;;;;;;;5009226;28;20048;-74
2022/04/26 05:06:14;;;;;;;15.20;13.77;;;;;;;;;;5010563;28;20073;-72
2022/04/26 05:08:40;;;;;;;14.70;13.20;;;;;;;;;;5009128;28;20518;-73
2022/04/26 05:11:06;;;;;;;16.60;14.82;;;;;;;;;;5010098;28;20100;-74
2022/04/26 05:13:32;;;;;;;17.05;15.27;;;;;;;;;;5010033;28;20046;-73
2022/04/26 05:15:58;;;;;;;17.02;15.38;;;;;;;;;;5009802;28;20490;-74
2022/04/26 05:18:25;;;;;;;16.50;14.90;;;;;;;;;;5010056;28;20050;-73
2022/04/26 05:20:50;;;;;;;17.17;14.10;;;;;;;;;;5008994;28;20052;-74
2022/04/26 05:26:00;;;;;;;15.07;13.55;;;;;;;;;;5009932;28;20121;-72
2022/04/26 05:28:27;;;;;;;15.13;13.20;;;;;;;;;;5009803;28;20137;-72
2022/04/26 05:30:53;;;;;;;15.75;14.27;;;;;;;;;;4969981;28;20137;-73
2022/04/26 05:33:19;;;;;;;16.48;14.40;;;;;;;;;;5008782;28;20409;-74
2022/04/26 05:35:44;;;;;;;13.93;12.63;;;;;;;;;;5009240;28;20045;-73
2022/04/26 05:38:10;;;;;;;14.45;13.05;;;;;;;;;;5008683;28;20062;-73
2022/04/26 05:40:36;;;;;;;15.65;14.05;;;;;;;;;;5009083;28;20120;-75
2022/04/26 05:43:02;;;;;;;16.20;14.57;;;;;;;;;;5005304;28;20045;-75
2022/04/26 05:45:28;;;;;;;14.43;12.70;;;;;;;;;;4980663;28;20105;-74
2022/04/26 05:47:54;;;;;;;14.55;13.18;;;;;;;;;;4989093;28;20368;-72
2022/04/26 05:50:20;;;;;;;14.77;13.25;;;;;;;;;;5008143;28;20072;-73
2022/04/26 05:52:46;;;;;;;19.15;13.43;;;;;;;;;;5008667;28;20049;-74
2022/04/26 05:55:12;;;;;;;15.00;12.77;;;;;;;;;;5009036;28;20601;-75
2022/04/26 05:57:38;;;;;;;17.42;12.75;;;;;;;;;;5009079;28;20430;-75
2022/04/26 06:00:05;;;;;;;16.88;12.82;;;;;;;;;;5008876;28;20038;-73
2022/04/26 06:02:38;;;;;;;13.13;11.93;;;;;;;;;;5008917;28;20107;-73
2022/04/26 06:05:04;;;;;;;14.30;12.82;;;;;;;;;;5008870;28;20084;-74
2022/04/26 06:07:30;;;;;;;13.43;12.00;;;;;;;;;;5000783;28;20042;-74
2022/04/26 06:09:57;;;;;;;13.57;12.15;;;;;;;;;;5008891;28;20045;-73
2022/04/26 06:12:28;;;;;;;17.67;13.93;;;;;;;;;;5009430;28;20045;-73
2022/04/26 06:14:57;;;;;;;16.85;15.23;;;;;;;;;;5012119;28;20045;-73
2022/04/26 06:17:24;;;;;;;15.93;14.45;;;;;;;;;;5012721;28;20088;-72
2022/04/26 06:19:50;;;;;;;16.33;14.68;;;;;;;;;;5012556;28;20030;-72
2022/04/26 06:22:15;;;;;;;20.33;16.67;;;;;;;;;;5012565;28;20052;-72
2022/04/26 06:24:41;;;;;;;20.17;16.45;;;;;;;;;;5012755;28;20037;-73
2022/04/26 06:27:07;;;;;;;17.15;15.55;;;;;;;;;;5012506;28;20061;-72
2022/04/26 06:29:33;;;;;;;19.33;16.40;;;;;;;;;;5011265;28;20080;-72
2022/04/26 06:31:59;;;;;;;21.73;18.52;;;;;;;;;;5012391;28;20103;-72
2022/04/26 06:34:25;;;;;;;27.00;18.23;;;;;;;;;;4995403;28;20053;-73
2022/04/26 06:36:51;;;;;;;26.38;19.58;;;;;;;;;;4994872;28;20053;-72
2022/04/26 06:39:17;;;;;;;22.60;18.33;;;;;;;;;;5012607;28;20042;-71
2022/04/26 06:41:44;;;;;;;26.65;18.40;;;;;;;;;;5012715;28;20147;-73
2022/04/26 06:44:12;;;;;;;29.02;20.02;;;;;;;;;;4994598;28;20103;-72
2022/04/26 06:46:38;;;;;;;25.02;19.35;;;;;;;;;;4979224;28;20140;-72
2022/04/26 06:49:05;;;;;;;23.65;18.73;;;;;;;;;;5012064;28;20042;-74
2022/04/26 06:51:35;;;;;;;13.95;12.13;;;;;;;;;;5012133;28;20533;-72
2022/04/26 06:54:01;;;;;;;12.55;11.20;;;;;;;;;;5012131;28;20048;-71
2022/04/26 06:56:27;;;;;;;18.42;12.68;;;;;;;;;;5012003;28;20052;-72
2022/04/26 06:58:53;;;;;;;14.10;12.15;;;;;;;;;;5010964;28;20042;-72
2022/04/26 07:01:19;;;;;;;11.80;10.50;;;;;;;;;;5012085;28;20077;-72
2022/04/26 07:03:45;;;;;;;13.70;9.88;;;;;;;;;;5011914;28;20077;-72
2022/04/26 07:06:10;;;;;;;11.27;9.75;;;;;;;;;;5010382;28;20042;-72
2022/04/26 07:08:36;;;;;;;8.77;7.97;;;;;;;;;;5011863;28;20413;-72
2022/04/26 07:11:02;;;;;;;8.50;7.60;;;;;;;;;;5005534;28;20048;-72
2022/04/26 07:13:28;;;;;;;9.20;8.27;;;;;;;;;;5001381;28;20045;-73
2022/04/26 07:15:54;;;;;;;12.75;9.40;;;;;;;;;;5011333;28;20049;-72
2022/04/26 07:18:20;;;;;;;8.93;8.02;;;;;;;;;;5011683;28;20522;-72
2022/04/26 07:20:45;;;;;;;8.90;8.10;;;;;;;;;;4994139;28;20041;-74
2022/04/26 07:23:12;;;;;;;12.05;8.13;;;;;;;;;;5007993;28;20516;-74
2022/04/26 07:25:38;;;;;;;7.85;7.15;;;;;;;;;;5011420;28;20112;-75
2022/04/26 07:28:04;;;;;;;7.90;7.30;;;;;;;;;;5012925;28;20085;-73
2022/04/26 07:30:41;;;;;;;7.88;7.28;;;;;;;;;;5001967;28;20130;-73
2022/04/26 07:35:54;;;;;;;7.22;6.63;;;;;;;;;;4999575;28;20048;-72
2022/04/26 07:38:21;;;;;;;7.50;6.90;;;;;;;;;;4993021;28;20054;-73
2022/04/26 07:40:47;;;;;;;7.50;6.90;;;;;;;;;;4991075;28;20052;-72
2022/04/26 07:43:13;;;;;;;10.20;7.63;;;;;;;;;;4990997;28;20398;-74
2022/04/26 07:45:39;;;;;;;8.82;7.15;;;;;;;;;;4998102;28;20528;-73
2022/04/26 07:48:05;;;;;;;7.25;6.47;;;;;;;;;;4991991;28;20052;-74
2022/04/26 07:50:31;;;;;;;7.43;6.47;;;;;;;;;;5008089;28;20300;-73
2022/04/26 07:52:58;;;;;;;8.77;6.38;;;;;;;;;;5008981;28;20049;-73
2022/04/26 07:55:24;;;;;;;5.97;5.47;;;;;;;;;;4998523;28;20044;-74
2022/04/26 07:57:50;;;;;;;7.70;5.88;;;;;;;;;;5001839;28;20053;-72
2022/04/26 08:00:16;;;;;;;6.57;6.07;;;;;;;;;;5010819;28;20034;-73
2022/04/26 08:02:42;;;;;;;7.28;6.63;;;;;;;;;;4993427;28;20060;-74
2022/04/26 08:05:08;;;;;;;7.32;6.55;;;;;;;;;;5010360;28;20049;-73
2022/04/26 08:07:39;;;;;;;7.25;6.03;;;;;;;;;;5009944;28;20041;-73
2022/04/26 08:10:08;;;;;;;6.43;5.82;;;;;;;;;;5010958;28;20594;-74
2022/04/26 08:12:35;;;;;;;11.18;6.03;;;;;;;;;;4993221;28;20431;-72
2022/04/26 08:15:00;;;;;;;5.82;5.32;;;;;;;;;;5010694;28;20534;-73
2022/04/26 08:17:28;;;;;;;8.98;6.25;;;;;;;;;;5009781;28;20104;-73
2022/04/26 08:19:54;;;;;;;7.15;6.45;;;;;;;;;;5011022;28;20034;-73
2022/04/26 08:22:20;;;;;;;10.13;6.40;;;;;;;;;;5011094;28;20037;-73
2022/04/26 08:27:33;;;;;;;14.63;6.60;;;;;;;;;;5010765;28;20050;-73
2022/04/26 08:29:59;;;;;;;7.95;7.35;;;;;;;;;;5009007;28;20049;-74
2022/04/26 08:32:28;;;;;;;7.90;7.07;;;;;;;;;;5009003;28;20689;-72
2022/04/26 08:34:54;;;;;;;9.00;7.43;;;;;;;;;;5010750;28;20044;-74
2022/04/26 08:37:20;;;;;;;7.90;7.30;;;;;;;;;;5009175;28;20137;-72
2022/04/26 08:39:48;;;;;;;13.20;7.32;;;;;;;;;;5010857;28;20050;-73
2022/04/26 08:42:14;;;;;;;7.97;7.28;;;;;;;;;;4993171;28;20517;-73
2022/04/26 08:44:41;;;;;;;7.72;6.88;;;;;;;;;;5010534;28;20046;-73
2022/04/26 08:52:47;;;;;;;7.60;6.90;;;;;;;;;;5010440;28;20100;-73
2022/04/26 08:55:13;;;;;;;8.00;7.28;;;;;;;;;;4992834;28;20109;-72
2022/04/26 08:57:39;;;;;;;7.45;6.47;;;;;;;;;;5010198;28;20049;-73
2022/04/26 09:00:06;;;;;;;9.55;7.38;;;;;;;;;;5010231;28;20096;-73
2022/04/26 09:02:32;;;;;;;12.60;7.40;;;;;;;;;;5010310;28;20065;-74
2022/04/26 09:05:01;;;;;;;9.68;7.00;;;;;;;;;;5010103;28;20045;-73
2022/04/26 09:07:31;;;;;;;7.47;6.57;;;;;;;;;;5010526;28;20053;-74
2022/04/26 09:10:13;;;;;;;7.53;6.75;;;;;;;;;;5009981;28;20056;-74
2022/04/26 09:13:01;;;;;;;7.18;6.65;;;;;;;;;;5010114;28;20747;-74
2022/04/26 09:15:33;;;;;;;7.63;6.93;;;;;;;;;;5000254;28;20052;-75
2022/04/26 09:18:24;;;;;;;8.50;7.65;;;;;;;;;;5009733;28;20526;-74
2022/04/26 09:20:58;;;;;;;8.57;7.88;;;;;;;;;;5011153;28;20553;-74
2022/04/26 09:23:25;;;;;;;13.70;7.70;;;;;;;;;;5011786;28;20052;-74
2022/04/26 09:25:52;;;;;;;8.15;7.50;;;;;;;;;;5012230;28;20108;-76
2022/04/26 09:28:20;;;;;;;12.95;8.18;;;;;;;;;;4990368;28;20044;-76
2022/04/26 09:30:47;;;;;;;10.73;6.68;;;;;;;;;;5012399;28;20046;-76
2022/04/26 09:33:29;;;;;;;13.15;6.93;;;;;;;;;;5011199;28;20096;-75
2022/04/26 09:36:05;;;;;;;8.75;7.22;;;;;;;;;;4992347;28;20520;-74
2022/04/26 09:38:33;;;;;;;7.50;6.78;;;;;;;;;;5009561;28;20050;-75
2022/04/26 09:40:59;;;;;;;7.97;6.13;;;;;;;;;;4992474;28;20045;-74
2022/04/26 09:43:26;;;;;;;5.70;5.20;;;;;;;;;;5009893;28;20092;-75
2022/04/26 09:45:53;;;;;;;6.30;5.70;;;;;;;;;;5009765;28;20419;-76
2022/04/26 09:48:26;;;;;;;6.30;5.72;;;;;;;;;;5008487;28;20044;-76
2022/04/26 09:50:52;;;;;;;6.10;5.05;;;;;;;;;;5009579;28;20034;-76
2022/04/26 09:53:18;;;;;;;6.78;6.15;;;;;;;;;;5009190;28;20577;-75
2022/04/26 09:55:44;;;;;;;12.57;5.30;;;;;;;;;;4991971;28;20124;-75
2022/04/26 09:58:11;;;;;;;7.93;6.25;;;;;;;;;;5007419;28;20522;-75
2022/04/26 10:00:39;;;;;;;5.30;4.45;;;;;;;;;;5009566;28;20038;-75
2022/04/26 10:03:06;;;;;;;6.40;5.47;;;;;;;;;;5009291;28;20109;-76
2022/04/26 10:05:32;;;;;;;6.03;4.70;;;;;;;;;;4991823;28;20516;-75
2022/04/26 10:07:58;;;;;;;4.35;4.03;;;;;;;;;;5009151;28;20043;-76
2022/04/26 10:10:26;;;;;;;5.97;3.53;;;;;;;;;;5009417;28;20049;-75
2022/04/26 10:15:37;;;;;;;4.82;2.90;;;;;;;;;;5009165;28;20045;-75
2022/04/26 10:18:23;;;;;;;2.80;2.70;;;;;;;;;;5009041;28;20066;-76
2022/04/26 10:20:49;;;;;;;2.60;2.50;;;;;;;;;;5006176;28;20040;-74
2022/04/26 10:23:15;;;;;;;2.97;2.80;;;;;;;;;;5009186;28;20046;-75
2022/04/26 10:25:41;;;;;;;3.03;2.85;;;;;;;;;;5009696;28;20434;-75
2022/04/26 10:28:16;;;;;;;4.78;3.33;;;;;;;;;;5008129;28;20042;-76
2022/04/26 10:30:49;;;;;;;3.90;3.60;;;;;;;;;;5009260;28;20038;-75
2022/04/26 10:33:34;;;;;;;3.70;3.40;;;;;;;;;;5008998;28;20126;-75
2022/04/26 10:36:21;;;;;;;5.43;2.95;;;;;;;;;;5009469;28;20108;-75
2022/04/26 10:39:11;;;;;;;3.20;3.00;;;;;;;;;;5016944;28;20679;-75
2022/04/26 10:41:37;;;;;;;;;;;;;;;;;;5015656;28;20041;-75
2022/04/26 10:44:12;;;;;;;3.45;3.20;;;;;;;;;;5009481;28;19913;-75
2022/04/26 10:46:45;;;;;;;4.95;3.58;;;;;;;;;;5009321;28;20042;-74
2022/04/26 10:49:24;;;;;;;5.03;3.50;;;;;;;;;;5008583;28;20173;-75
2022/04/26 10:51:53;;;;;;;4.75;3.83;;;;;;;;;;5008195;28;20057;-75
2022/04/26 10:54:38;;;;;;;4.60;3.50;;;;;;;;;;5007079;28;20467;-75
2022/04/26 10:57:04;;;;;;;6.00;3.22;;;;;;;;;;5007821;28;20137;-74
2022/04/26 10:59:30;;;;;;;4.28;3.40;;;;;;;;;;5008910;28;20065;-73
2022/04/26 11:01:56;;;;;;;3.38;3.17;;;;;;;;;;4995205;28;20046;-74
2022/04/26 11:04:22;;;;;;;3.22;3.00;;;;;;;;;;4978621;28;20042;-75
2022/04/26 11:06:48;;;;;;;3.53;3.22;;;;;;;;;;5012792;28;20050;-74
2022/04/26 11:09:15;;;;;;;3.72;3.47;;;;;;;;;;5012273;28;20042;-75
2022/04/26 11:11:51;;;;;;;4.45;3.17;;;;;;;;;;5012639;28;20073;-74
2022/04/26 11:14:20;;;;;;;4.80;3.50;;;;;;;;;;5011164;28;20140;-75
2022/04/26 11:16:56;;;;;;;3.67;3.40;;;;;;;;;;4994573;28;20054;-75
2022/04/26 11:19:28;;;;;;;5.53;3.55;;;;;;;;;;5012270;28;20133;-74
2022/04/26 11:21:55;;;;;;;4.85;4.15;;;;;;;;;;5011308;28;20036;-74
2022/04/26 11:29:53;;;;;;;3.25;3.03;;;;;;;;;;5012135;28;20045;-74
2022/04/26 11:32:29;;;;;;;4.65;3.15;;;;;;;;;;5011945;28;20117;-74
2022/04/26 11:34:55;;;;;;;4.72;4.32;;;;;;;;;;5012110;28;20060;-74
2022/04/26 11:37:21;;;;;;;5.18;4.20;;;;;;;;;;5011761;28;20042;-74
2022/04/26 11:39:47;;;;;;;3.80;3.50;;;;;;;;;;5011921;28;20408;-75
2022/04/26 11:42:13;;;;;;;3.83;2.78;;;;;;;;;;5010543;28;20042;-74
2022/04/26 11:44:55;;;;;;;3.83;3.50;;;;;;;;;;4994247;28;20049;-74
2022/04/26 11:47:21;;;;;;;3.13;2.90;;;;;;;;;;4993961;28;20037;-75
2022/04/26 11:49:47;;;;;;;6.57;3.55;;;;;;;;;;5011842;28;20048;-75
2022/04/26 11:52:21;;;;;;;5.47;3.25;;;;;;;;;;5011696;28;20041;-74
2022/04/26 11:54:48;;;;;;;4.43;3.22;;;;;;;;;;5011536;28;20157;-73
2022/04/26 11:57:20;;;;;;;2.65;2.45;;;;;;;;;;5011346;28;20050;-74
2022/04/26 11:59:46;;;;;;;2.47;2.38;;;;;;;;;;5011541;28;20518;-75
2022/04/26 12:02:12;;;;;;;5.30;3.45;;;;;;;;;;5011380;28;20054;-74
2022/04/26 12:04:38;;;;;;;3.67;3.08;;;;;;;;;;5010290;28;20041;-75
2022/04/26 12:07:04;;;;;;;3.42;3.13;;;;;;;;;;5010989;28;20522;-75
2022/04/26 12:09:30;;;;;;;3.50;2.65;;;;;;;;;;5011215;28;20177;-75
2022/04/26 12:12:00;;;;;;;3.80;3.50;;;;;;;;;;5010896;28;20056;-74
2022/04/26 12:14:26;;;;;;;4.05;3.65;;;;;;;;;;5010995;28;20050;-73
2022/04/26 12:16:55;;;;;;;4.15;3.55;;;;;;;;;;5009714;28;20050;-76
2022/04/26 12:19:34;;;;;;;5.75;3.50;;;;;;;;;;5010255;28;20045;-73
2022/04/26 12:22:00;;;;;;;3.70;3.40;;;;;;;;;;5010127;28;20044;-74
2022/04/26 12:24:29;;;;;;;3.65;3.35;;;;;;;;;;5010897;28;20419;-74
2022/04/26 12:26:59;;;;;;;6.18;4.10;;;;;;;;;;5010036;28;20037;-74
2022/04/26 12:29:26;;;;;;;4.22;3.83;;;;;;;;;;5009772;28;20534;-75
2022/04/26 12:31:52;;;;;;;8.43;3.78;;;;;;;;;;4977021;28;20070;-74
2022/04/26 12:34:21;;;;;;;6.60;3.83;;;;;;;;;;5010136;28;20069;-74
2022/04/26 12:36:59;;;;;;;5.18;3.70;;;;;;;;;;5010393;28;20052;-73
2022/04/26 12:39:26;;;;;;;3.97;3.60;;;;;;;;;;5008354;28;20443;-74
2022/04/26 12:41:53;;;;;;;4.82;4.05;;;;;;;;;;4993169;28;20046;-74
2022/04/26 12:44:19;;;;;;;7.15;3.70;;;;;;;;;;4992797;28;20034;-74
2022/04/26 12:46:46;;;;;;;8.32;4.05;;;;;;;;;;5010590;28;20393;-74
2022/04/26 12:51:57;;;;;;;5.78;4.60;;;;;;;;;;4975671;28;20445;-76
2022/04/26 12:54:23;;;;;;;6.22;4.28;;;;;;;;;;4991820;28;20133;-75
2022/04/26 12:56:58;;;;;;;7.40;4.22;;;;;;;;;;5010156;28;20049;-75
2022/04/26 12:59:25;;;;;;;4.07;3.75;;;;;;;;;;5009827;28;20120;-75
2022/04/26 13:01:50;;;;;;;7.55;4.15;;;;;;;;;;4992495;28;20038;-74
2022/04/26 13:04:16;;;;;;;4.68;3.63;;;;;;;;;;5008605;28;20160;-74
2022/04/26 13:06:43;;;;;;;4.30;3.80;;;;;;;;;;5008196;28;20117;-74
2022/04/26 13:09:08;;;;;;;3.65;3.45;;;;;;;;;;5010033;28;20157;-74
2022/04/26 13:11:36;;;;;;;4.38;4.07;;;;;;;;;;5008863;28;20897;-74
2022/04/26 13:14:02;;;;;;;4.30;4.00;;;;;;;;;;5001423;28;20410;-74
2022/04/26 13:16:28;;;;;;;4.22;3.38;;;;;;;;;;5009047;28;20050;-74
2022/04/26 13:18:54;;;;;;;7.75;5.05;;;;;;;;;;5009669;28;20060;-73
2022/04/26 13:21:20;;;;;;;6.47;4.53;;;;;;;;;;4990166;28;20040;-73
2022/04/26 13:23:46;;;;;;;5.03;4.53;;;;;;;;;;5009469;28;20129;-72
2022/04/26 13:26:12;;;;;;;5.97;4.70;;;;;;;;;;5009371;28;20113;-74
2022/04/26 13:28:38;;;;;;;6.45;4.35;;;;;;;;;;5009232;28;20072;-72
2022/04/26 13:31:04;;;;;;;7.85;4.50;;;;;;;;;;5008292;28;20065;-73
2022/04/26 13:33:30;;;;;;;12.43;4.60;;;;;;;;;;5009117;28;20133;-73
2022/04/26 13:35:56;;;;;;;3.97;3.67;;;;;;;;;;5009417;28;20125;-73
2022/04/26 13:38:22;;;;;;;4.07;3.78;;;;;;;;;;5009427;28;20524;-73
2022/04/26 13:40:50;;;;;;;5.90;4.20;;;;;;;;;;4991276;28;20038;-73
2022/04/26 13:43:18;;;;;;;5.68;3.90;;;;;;;;;;4990278;28;20422;-73
2022/04/26 13:45:44;;;;;;;4.28;3.92;;;;;;;;;;5008220;28;20154;-73
2022/04/26 13:48:11;;;;;;;2.90;2.70;;;;;;;;;;5009546;28;20042;-74
2022/04/26 13:50:37;;;;;;;3.88;3.58;;;;;;;;;;5009633;28;20044;-73
2022/04/26 13:53:03;;;;;;;6.65;3.72;;;;;;;;;;5009749;28;20050;-72
2022/04/26 13:55:30;;;;;;;6.43;4.00;;;;;;;;;;5009437;28;20100;-73
2022/04/26 13:57:56;;;;;;;4.20;3.90;;;;;;;;;;5009684;28;20057;-73
2022/04/26 14:00:22;;;;;;;5.00;3.13;;;;;;;;;;4991419;28;20042;-73
2022/04/26 14:02:48;;;;;;;3.95;3.05;;;;;;;;;;5009530;28;20049;-73
2022/04/26 14:05:15;;;;;;;7.20;4.07;;;;;;;;;;5009146;28;20080;-74
2022/04/26 14:07:41;;;;;;;4.40;4.00;;;;;;;;;;5009613;28;20068;-73
2022/04/26 14:10:08;;;;;;;6.03;3.78;;;;;;;;;;5009543;28;20100;-73
2022/04/26 14:12:34;;;;;;;5.03;3.65;;;;;;;;;;5009082;28;20133;-73
2022/04/26 14:23:14;;;;;;;4.72;3.55;;;;;;;;;;5009473;28;20050;-74
2022/04/26 14:25:39;;;;;;;4.32;3.92;;;;;;;;;;4991486;28;20037;-73
2022/04/26 14:28:06;;;;;;;8.43;3.85;;;;;;;;;;5009551;28;20061;-73
2022/04/26 14:30:32;;;;;;;7.00;4.10;;;;;;;;;;5009056;28;20406;-73
2022/04/26 14:32:57;;;;;;;5.13;4.18;;;;;;;;;;4988266;28;20050;-73
2022/04/26 14:35:23;;;;;;;4.45;3.78;;;;;;;;;;5010133;28;20093;-73
2022/04/26 14:37:51;;;;;;;7.15;4.32;;;;;;;;;;5013020;28;20510;-73
2022/04/26 14:40:17;;;;;;;3.88;3.30;;;;;;;;;;5012563;28;20187;-72
2022/04/26 14:42:46;;;;;;;3.60;2.90;;;;;;;;;;5011446;28;20049;-71
2022/04/26 14:45:12;;;;;;;3.30;2.97;;;;;;;;;;5012724;28;20518;-73
2022/04/26 14:47:38;;;;;;;4.45;3.38;;;;;;;;;;5012200;28;20183;-73
2022/04/26 14:50:05;;;;;;;4.25;3.10;;;;;;;;;;4995088;28;20046;-74
2022/04/26 14:52:31;;;;;;;4.88;3.28;;;;;;;;;;5012698;28;20080;-73
2022/04/26 14:54:57;;;;;;;3.13;2.92;;;;;;;;;;5012971;28;20565;-74
2022/04/26 14:57:23;;;;;;;5.82;3.30;;;;;;;;;;5012547;28;20057;-73
2022/04/26 14:59:49;;;;;;;3.10;2.90;;;;;;;;;;5012329;28;20038;-73
2022/04/26 15:02:17;;;;;;;3.33;3.03;;;;;;;;;;5012545;28;20046;-73
2022/04/26 15:04:46;;;;;;;3.40;3.10;;;;;;;;;;5011937;28;20033;-74
2022/04/26 15:07:12;;;;;;;3.47;2.83;;;;;;;;;;5012713;28;20049;-74
2022/04/26 15:09:45;;;;;;;3.72;3.35;;;;;;;;;;5012118;28;20053;-73
2022/04/26 15:17:43;;;;;;;4.18;3.22;;;;;;;;;;5012237;28;20153;-73
2022/04/26 15:20:13;;;;;;;2.88;2.67;;;;;;;;;;5012592;28;20044;-73
2022/04/26 15:22:39;;;;;;;6.32;3.72;;;;;;;;;;5010229;28;20085;-73
2022/04/26 15:25:06;;;;;;;4.32;3.47;;;;;;;;;;5011900;28;20506;-73
2022/04/26 15:27:37;;;;;;;3.20;2.90;;;;;;;;;;5009541;28;20454;-73
2022/04/26 15:30:03;;;;;;;;;;;;;;;;;;5011090;28;20048;-73
2022/04/26 15:32:29;;;;;;;4.95;2.90;;;;;;;;;;5010247;28;20340;-73
2022/04/26 15:34:55;;;;;;;4.07;2.55;;;;;;;;;;5008321;28;20080;-74
2022/04/26 15:37:24;;;;;;;6.78;2.80;;;;;;;;;;5009934;28;20060;-74
2022/04/26 15:39:51;;;;;;;3.03;2.72;;;;;;;;;;5011424;28;20044;-74
2022/04/26 15:42:18;;;;;;;4.85;2.47;;;;;;;;;;5011713;28;20108;-74
2022/04/26 15:44:44;;;;;;;2.42;2.22;;;;;;;;;;5011513;28;20038;-74
2022/04/26 15:47:10;;;;;;;6.72;2.63;;;;;;;;;;4992645;28;20145;-73
2022/04/26 15:49:36;;;;;;;7.70;2.95;;;;;;;;;;5011279;28;20050;-73
2022/04/26 15:52:02;;;;;;;5.97;3.03;;;;;;;;;;5012043;28;20045;-74
2022/04/26 15:54:28;;;;;;;3.35;2.30;;;;;;;;;;5010744;28;20042;-74
2022/04/26 15:56:54;;;;;;;3.60;2.90;;;;;;;;;;5011336;28;20653;-74
2022/04/26 15:59:20;;;;;;;3.80;2.72;;;;;;;;;;4995227;28;20116;-73
2022/04/26 16:01:46;;;;;;;3.38;3.05;;;;;;;;;;5012064;28;20064;-74
2022/04/26 16:04:12;;;;;;;3.67;3.40;;;;;;;;;;5012311;28;20049;-73
2022/04/26 16:06:38;;;;;;;4.65;3.70;;;;;;;;;;5011756;28;20041;-74
2022/04/26 16:22:51;;;;;;;4.95;3.50;;;;;;;;;;5011057;28;20136;-73
2022/04/26 16:25:18;;;;;;;5.38;3.50;;;;;;;;;;5011058;28;20116;-74
2022/04/26 16:27:46;;;;;;;5.43;3.78;;;;;;;;;;5010902;28;20057;-73
2022/04/26 16:30:12;;;;;;;5.63;3.67;;;;;;;;;;5011009;28;20033;-73
2022/04/26 16:32:38;;;;;;;19.17;3.78;;;;;;;;;;4993227;28;20056;-73
2022/04/26 16:35:06;;;;;;;7.13;3.90;;;;;;;;;;5009775;28;20120;-74
2022/04/26 16:37:32;;;;;;;17.45;3.95;;;;;;;;;;5010558;28;20071;-73
2022/04/26 16:39:58;;;;;;;4.75;3.70;;;;;;;;;;5010692;28;20474;-73
2022/04/26 16:42:24;;;;;;;9.65;4.28;;;;;;;;;;5010508;28;20049;-73
2022/04/26 16:44:50;;;;;;;11.02;4.03;;;;;;;;;;5011415;28;20038;-73
2022/04/26 16:47:17;;;;;;;5.35;3.58;;;;;;;;;;5010652;28;20046;-73
2022/04/26 16:49:43;;;;;;;8.00;3.78;;;;;;;;;;4992756;28;20529;-73
2022/04/26 16:52:09;;;;;;;10.57;3.63;;;;;;;;;;5010942;28;20042;-73
2022/04/26 16:54:35;;;;;;;8.93;3.67;;;;;;;;;;5009900;28;20124;-73
2022/04/26 16:57:02;;;;;;;9.05;3.60;;;;;;;;;;5008975;28;20057;-73
2022/04/26 16:59:30;;;;;;;6.40;3.80;;;;;;;;;;5010316;28;20049;-73
2022/04/26 17:01:56;;;;;;;5.35;3.40;;;;;;;;;;5009417;28;20418;-73
2022/04/26 17:04:22;;;;;;;8.68;3.72;;;;;;;;;;5009982;28;20042;-73
2022/04/26 17:06:49;;;;;;;5.68;4.40;;;;;;;;;;5010242;28;20418;-73
2022/04/26 17:09:16;;;;;;;10.48;3.70;;;;;;;;;;5010151;28;20100;-73
2022/04/26 17:11:42;;;;;;;5.47;3.65;;;;;;;;;;5010184;28;20069;-73
2022/04/26 17:14:15;;;;;;;7.07;3.40;;;;;;;;;;5010501;28;20092;-74
2022/04/26 17:16:45;;;;;;;6.03;3.70;;;;;;;;;;5009983;28;20140;-73
2022/04/26 17:19:12;;;;;;;5.38;3.40;;;;;;;;;;5002529;28;20041;-74
2022/04/26 17:21:38;;;;;;;10.55;4.20;;;;;;;;;;4992290;28;20562;-73
2022/04/26 17:24:04;;;;;;;13.30;6.32;;;;;;;;;;5005821;28;20040;-74
2022/04/26 17:26:30;;;;;;;12.02;5.57;;;;;;;;;;5009373;28;20395;-73
2022/04/26 17:28:57;;;;;;;17.85;4.70;;;;;;;;;;4992120;28;20410;-73
2022/04/26 17:31:23;;;;;;;13.48;4.72;;;;;;;;;;5009406;28;20124;-73
2022/04/26 17:33:54;;;;;;;10.52;4.55;;;;;;;;;;5009868;28;20038;-73
2022/04/26 17:36:20;;;;;;;8.90;4.68;;;;;;;;;;5009664;28;20042;-73
2022/04/26 17:38:46;;;;;;;14.27;5.68;;;;;;;;;;4991951;28;20050;-73
2022/04/26 17:41:12;;;;;;;4.15;3.15;;;;;;;;;;5007919;28;20038;-73
2022/04/26 17:43:39;;;;;;;6.45;3.33;;;;;;;;;;5009252;28;20683;-73
2022/04/26 17:46:11;;;;;;;3.78;2.92;;;;;;;;;;5009930;28;20068;-73
2022/04/26 17:48:38;;;;;;;7.97;2.58;;;;;;;;;;5009701;28;20054;-73
2022/04/26 17:51:04;;;;;;;5.68;2.45;;;;;;;;;;5009894;28;20065;-73
2022/04/26 17:56:30;;;;;;;2.15;1.90;;;;;;;;;;5009950;28;20050;-73
2022/04/26 17:58:56;;;;;;;5.95;2.50;;;;;;;;;;5008368;28;20157;-73
2022/04/26 18:01:25;;;;;;;4.28;2.55;;;;;;;;;;5002702;28;20495;-73
2022/04/26 18:03:51;;;;;;;4.78;2.40;;;;;;;;;;5006033;28;20081;-72
2022/04/26 18:06:17;;;;;;;2.60;2.40;;;;;;;;;;4975872;28;20414;-72
2022/04/26 18:08:44;;;;;;;2.60;2.40;;;;;;;;;;4999452;28;20395;-73
2022/04/26 18:11:10;;;;;;;2.45;2.22;;;;;;;;;;5000931;28;20069;-72
2022/04/26 18:13:37;;;;;;;2.10;2.00;;;;;;;;;;5009595;28;20050;-72
2022/04/26 18:16:04;;;;;;;3.78;2.42;;;;;;;;;;5011917;28;20057;-72
2022/04/26 18:18:31;;;;;;;3.25;2.47;;;;;;;;;;5011257;28;20112;-72
2022/04/26 18:21:00;;;;;;;2.47;2.30;;;;;;;;;;5011800;28;20469;-71
2022/04/26 18:23:26;;;;;;;3.58;3.28;;;;;;;;;;5012550;28;20078;-72
2022/04/26 18:26:11;;;;;;;5.60;2.70;;;;;;;;;;4996220;28;20030;-72
2022/04/26 18:28:39;;;;;;;3.13;2.35;;;;;;;;;;4993220;28;20112;-72
2022/04/26 18:31:06;;;;;;;3.30;2.30;;;;;;;;;;5013413;28;20038;-72
2022/04/26 18:33:32;;;;;;;2.97;2.13;;;;;;;;;;5012497;28;20053;-72
2022/04/26 18:35:59;;;;;;;2.72;2.00;;;;;;;;;;5011413;28;20536;-72
2022/04/26 18:38:26;;;;;;;4.18;2.35;;;;;;;;;;5009265;28;20045;-71
2022/04/26 18:40:54;;;;;;;9.50;2.50;;;;;;;;;;5019906;28;20083;-72
2022/04/26 18:43:20;;;;;;;6.20;3.03;;;;;;;;;;5008149;28;20034;-73
2022/04/26 18:45:47;;;;;;;11.27;3.22;;;;;;;;;;5010583;28;20056;-73
2022/04/26 18:48:13;;;;;;;9.70;3.17;;;;;;;;;;4994030;28;20038;-73
2022/04/26 18:50:39;;;;;;;10.27;4.43;;;;;;;;;;5011618;28;20068;-73
2022/04/26 18:53:07;;;;;;;7.97;3.47;;;;;;;;;;5011172;28;20518;-73
2022/04/26 18:55:33;;;;;;;5.22;2.40;;;;;;;;;;5011092;28;20046;-73
2022/04/26 18:57:59;;;;;;;7.53;2.78;;;;;;;;;;5010617;28;20057;-73
2022/04/26 19:00:25;;;;;;;13.88;3.33;;;;;;;;;;5006744;28;20575;-72
2022/04/26 19:02:51;;;;;;;14.75;3.90;;;;;;;;;;5014025;28;20414;-72
2022/04/26 19:05:17;;;;;;;7.53;2.70;;;;;;;;;;5009678;28;20042;-74
2022/04/26 19:07:43;;;;;;;13.63;3.58;;;;;;;;;;5010117;28;20125;-72